sensor_id;sensor_type;location;lat;lon;timestamp;pressure;altitude;pressure_sealevel;temperature;humidity
50302;BME280;36550;50.472;19.744;2022-07-04T00:02:43;98235.98;;;14.89;73.27
50302;BME280;36550;50.472;19.744;2022-07-04T00:05:28;98230.41;;;14.91;73.25
50302;BME280;36550;50.472;19.744;2022-07-04T00:08:12;98232.52;;;14.89;73.35
50302;BME280;36550;50.472;19.744;2022-07-04T00:10:57;98231.45;;;14.87;73.39
50302;BME280;36550;50.472;19.744;2022-07-04T00:13:41;98231.70;;;14.83;73.36
50302;BME280;36550;50.472;19.744;2022-07-04T00:16:25;98224.55;;;14.78;73.28
50302;BME280;36550;50.472;19.744;2022-07-04T00:19:09;98225.34;;;14.76;73.43
50302;BME280;36550;50.472;19.744;2022-07-04T00:21:53;98226.13;;;14.77;73.40
50302;BME280;36550;50.472;19.744;2022-07-04T00:24:37;98227.70;;;14.73;73.28
50302;BME280;36550;50.472;19.744;2022-07-04T00:27:22;98222.12;;;14.69;73.23
50302;BME280;36550;50.472;19.744;2022-07-04T00:30:07;98223.41;;;14.64;73.23
50302;BME280;36550;50.472;19.744;2022-07-04T00:32:51;98217.84;;;14.60;73.32
50302;BME280;36550;50.472;19.744;2022-07-04T00:35:35;98219.63;;;14.55;73.27
50302;BME280;36550;50.472;19.744;2022-07-04T00:38:20;98219.34;;;14.51;73.48
50302;BME280;36550;50.472;19.744;2022-07-04T00:41:04;98217.73;;;14.48;73.68
50302;BME280;36550;50.472;19.744;2022-07-04T00:44:03;98210.63;;;14.51;73.92
50302;BME280;36550;50.472;19.744;2022-07-04T00:46:49;98211.17;;;14.53;73.99
50302;BME280;36550;50.472;19.744;2022-07-04T00:49:34;98209.56;;;14.52;74.00
50302;BME280;36550;50.472;19.744;2022-07-04T00:52:19;98215.09;;;14.50;73.98
50302;BME280;36550;50.472;19.744;2022-07-04T00:55:04;98215.13;;;14.53;74.13
50302;BME280;36550;50.472;19.744;2022-07-04T00:57:49;98211.95;;;14.51;74.22
50302;BME280;36550;50.472;19.744;2022-07-04T01:00:33;98216.70;;;14.51;74.25
50302;BME280;36550;50.472;19.744;2022-07-04T01:03:18;98207.17;;;14.50;74.09
50302;BME280;36550;50.472;19.744;2022-07-04T01:06:03;98210.06;;;14.49;74.08
50302;BME280;36550;50.472;19.744;2022-07-04T01:08:47;98212.70;;;14.43;73.83
50302;BME280;36550;50.472;19.744;2022-07-04T01:11:32;98211.34;;;14.38;73.87
50302;BME280;36550;50.472;19.744;2022-07-04T01:14:16;98210.22;;;14.32;73.83
50302;BME280;36550;50.472;19.744;2022-07-04T01:17:01;98209.14;;;14.28;73.95
50302;BME280;36550;50.472;19.744;2022-07-04T01:19:45;98207.78;;;14.22;73.96
50302;BME280;36550;50.472;19.744;2022-07-04T01:22:29;98205.92;;;14.18;73.97
50302;BME280;36550;50.472;19.744;2022-07-04T01:25:13;98210.37;;;14.17;73.98
50302;BME280;36550;50.472;19.744;2022-07-04T01:28:02;98213.84;;;14.18;74.18
50302;BME280;36550;50.472;19.744;2022-07-04T01:30:47;98209.59;;;14.19;74.39
50302;BME280;36550;50.472;19.744;2022-07-04T01:33:32;98209.10;;;14.22;74.60
50302;BME280;36550;50.472;19.744;2022-07-04T01:36:16;98213.34;;;14.23;74.57
50302;BME280;36550;50.472;19.744;2022-07-04T01:39:02;98205.92;;;14.18;74.45
50302;BME280;36550;50.472;19.744;2022-07-04T01:41:46;98206.66;;;14.13;74.31
50302;BME280;36550;50.472;19.744;2022-07-04T01:44:31;98202.41;;;14.10;74.34
50302;BME280;36550;50.472;19.744;2022-07-04T01:47:15;98199.52;;;14.09;74.44
50302;BME280;36550;50.472;19.744;2022-07-04T01:49:59;98201.34;;;14.08;74.29
50302;BME280;36550;50.472;19.744;2022-07-04T01:52:44;98201.58;;;14.06;74.22
50302;BME280;36550;50.472;19.744;2022-07-04T01:55:28;98198.41;;;14.04;74.42
50302;BME280;36550;50.472;19.744;2022-07-04T01:58:13;98202.61;;;14.03;74.64
50302;BME280;36550;50.472;19.744;2022-07-04T02:00:58;98201.03;;;14.02;74.66
50302;BME280;36550;50.472;19.744;2022-07-04T02:04:03;98205.25;;;14.03;74.68
50302;BME280;36550;50.472;19.744;2022-07-04T02:06:47;98204.46;;;14.02;74.54
50302;BME280;36550;50.472;19.744;2022-07-04T02:09:32;98196.78;;;13.98;74.46
50302;BME280;36550;50.472;19.744;2022-07-04T02:12:20;98197.56;;;13.96;74.49
50302;BME280;36550;50.472;19.744;2022-07-04T02:15:21;98196.19;;;13.91;74.49
50302;BME280;36550;50.472;19.744;2022-07-04T02:18:08;98193.79;;;13.87;74.30
50302;BME280;36550;50.472;19.744;2022-07-04T02:20:52;98192.91;;;13.79;74.25
50302;BME280;36550;50.472;19.744;2022-07-04T02:23:37;98199.50;;;13.76;74.39
50302;BME280;36550;50.472;19.744;2022-07-04T02:26:21;98201.34;;;13.76;74.51
50302;BME280;36550;50.472;19.744;2022-07-04T02:29:05;98207.94;;;13.76;74.58
50302;BME280;36550;50.472;19.744;2022-07-04T02:31:49;98207.95;;;13.78;74.77
50302;BME280;36550;50.472;19.744;2022-07-04T02:34:33;98207.46;;;13.81;74.94
50302;BME280;36550;50.472;19.744;2022-07-04T02:37:17;98214.61;;;13.86;75.01
50302;BME280;36550;50.472;19.744;2022-07-04T02:40:02;98216.75;;;13.86;75.07
50302;BME280;36550;50.472;19.744;2022-07-04T02:42:48;98213.58;;;13.87;75.17
50302;BME280;36550;50.472;19.744;2022-07-04T02:45:32;98212.02;;;13.89;75.19
50302;BME280;36550;50.472;19.744;2022-07-04T02:48:17;98215.19;;;13.91;75.05
50302;BME280;36550;50.472;19.744;2022-07-04T02:51:01;98218.37;;;13.93;75.00
50302;BME280;36550;50.472;19.744;2022-07-04T02:53:45;98222.88;;;13.95;75.09
50302;BME280;36550;50.472;19.744;2022-07-04T02:56:29;98210.75;;;13.96;75.04
50302;BME280;36550;50.472;19.744;2022-07-04T02:59:13;98209.14;;;13.95;74.95
50302;BME280;36550;50.472;19.744;2022-07-04T03:01:58;98208.61;;;13.93;74.91
50302;BME280;36550;50.472;19.744;2022-07-04T03:04:42;98206.75;;;13.91;74.88
50302;BME280;36550;50.472;19.744;2022-07-04T03:07:26;98204.94;;;13.94;74.88
50302;BME280;36550;50.472;19.744;2022-07-04T03:10:10;98201.77;;;13.97;74.85
50302;BME280;36550;50.472;19.744;2022-07-04T03:12:54;98201.82;;;14.02;74.86
50302;BME280;36550;50.472;19.744;2022-07-04T03:15:39;98200.84;;;14.14;74.98
50302;BME280;36550;50.472;19.744;2022-07-04T03:18:23;98200.25;;;14.81;74.36
50302;BME280;36550;50.472;19.744;2022-07-04T03:21:08;98200.42;;;15.25;74.07
50302;BME280;36550;50.472;19.744;2022-07-04T03:23:52;98195.44;;;15.34;74.02
50302;BME280;36550;50.472;19.744;2022-07-04T03:26:42;98190.42;;;15.37;74.04
50302;BME280;36550;50.472;19.744;2022-07-04T03:29:27;98192.27;;;15.42;73.72
50302;BME280;36550;50.472;19.744;2022-07-04T03:32:11;98199.47;;;15.72;73.45
50302;BME280;36550;50.472;19.744;2022-07-04T03:34:55;98189.72;;;15.93;73.18
50302;BME280;36550;50.472;19.744;2022-07-04T03:37:39;98186.83;;;15.90;73.30
50302;BME280;36550;50.472;19.744;2022-07-04T03:40:23;98187.61;;;15.93;73.41
50302;BME280;36550;50.472;19.744;2022-07-04T03:43:08;98191.58;;;15.93;73.31
50302;BME280;36550;50.472;19.744;2022-07-04T03:45:53;98191.59;;;15.95;73.36
50302;BME280;36550;50.472;19.744;2022-07-04T03:48:37;98187.63;;;15.95;73.52
50302;BME280;36550;50.472;19.744;2022-07-04T03:51:21;98182.84;;;16.00;73.64
50302;BME280;36550;50.472;19.744;2022-07-04T03:54:06;98181.77;;;16.06;73.71
50302;BME280;36550;50.472;19.744;2022-07-04T03:56:50;98185.77;;;16.14;73.63
50302;BME280;36550;50.472;19.744;2022-07-04T03:59:35;98175.41;;;16.23;73.63
50302;BME280;36550;50.472;19.744;2022-07-04T04:02:19;98185.45;;;16.33;73.62
50302;BME280;36550;50.472;19.744;2022-07-04T04:05:04;98185.19;;;16.45;73.36
50302;BME280;36550;50.472;19.744;2022-07-04T04:08:07;98183.05;;;16.55;73.37
50302;BME280;36550;50.472;19.744;2022-07-04T04:10:52;98198.62;;;16.77;73.30
50302;BME280;36550;50.472;19.744;2022-07-04T04:13:36;98202.34;;;16.84;73.41
50302;BME280;36550;50.472;19.744;2022-07-04T04:16:20;98204.95;;;16.94;73.66
50302;BME280;36550;50.472;19.744;2022-07-04T04:19:04;98207.82;;;17.08;73.75
50302;BME280;36550;50.472;19.744;2022-07-04T04:21:48;98206.73;;;17.17;73.73
50302;BME280;36550;50.472;19.744;2022-07-04T04:24:32;98205.09;;;17.26;73.75
50302;BME280;36550;50.472;19.744;2022-07-04T04:27:16;98204.24;;;17.38;73.82
50302;BME280;36550;50.472;19.744;2022-07-04T04:30:00;98203.36;;;17.50;73.80
50302;BME280;36550;50.472;19.744;2022-07-04T04:32:45;98204.63;;;17.58;73.74
50302;BME280;36550;50.472;19.744;2022-07-04T04:35:29;98208.29;;;17.70;73.81
50302;BME280;36550;50.472;19.744;2022-07-04T04:38:13;98216.16;;;17.83;73.87
50302;BME280;36550;50.472;19.744;2022-07-04T04:40:57;98213.17;;;17.95;73.89
50302;BME280;36550;50.472;19.744;2022-07-04T04:43:42;98207.53;;;18.06;74.00
50302;BME280;36550;50.472;19.744;2022-07-04T04:46:26;98200.50;;;18.21;74.08
50302;BME280;36550;50.472;19.744;2022-07-04T04:49:11;98193.98;;;18.37;74.18
50302;BME280;36550;50.472;19.744;2022-07-04T04:51:56;98190.92;;;18.49;74.16
50302;BME280;36550;50.472;19.744;2022-07-04T04:54:40;98186.77;;;18.64;74.28
50302;BME280;36550;50.472;19.744;2022-07-04T04:57:24;98178.82;;;19.10;74.42
50302;BME280;36550;50.472;19.744;2022-07-04T05:00:09;98180.73;;;20.18;73.59
50302;BME280;36550;50.472;19.744;2022-07-04T05:02:54;98180.19;;;21.30;72.53
50302;BME280;36550;50.472;19.744;2022-07-04T05:05:38;98186.64;;;22.33;71.32
50302;BME280;36550;50.472;19.744;2022-07-04T05:08:23;98180.33;;;23.18;69.97
50302;BME280;36550;50.472;19.744;2022-07-04T05:11:10;98190.20;;;23.90;68.93
50302;BME280;36550;50.472;19.744;2022-07-04T05:13:55;98193.39;;;24.56;67.90
50302;BME280;36550;50.472;19.744;2022-07-04T05:16:39;98191.20;;;25.09;66.63
50302;BME280;36550;50.472;19.744;2022-07-04T05:19:23;98192.27;;;25.53;65.80
50302;BME280;36550;50.472;19.744;2022-07-04T05:22:08;98197.26;;;25.90;65.05
50302;BME280;36550;50.472;19.744;2022-07-04T05:24:54;98205.70;;;26.28;64.31
50302;BME280;36550;50.472;19.744;2022-07-04T05:27:38;98207.19;;;26.57;63.17
50302;BME280;36550;50.472;19.744;2022-07-04T05:30:23;98208.22;;;26.83;62.45
50302;BME280;36550;50.472;19.744;2022-07-04T05:33:08;98218.19;;;27.07;61.36
50302;BME280;36550;50.472;19.744;2022-07-04T05:35:52;98209.00;;;27.26;61.00
50302;BME280;36550;50.472;19.744;2022-07-04T05:38:36;98207.84;;;27.40;60.04
50302;BME280;36550;50.472;19.744;2022-07-04T05:41:20;98203.23;;;27.46;59.23
50302;BME280;36550;50.472;19.744;2022-07-04T05:44:05;98204.98;;;27.55;58.96
50302;BME280;36550;50.472;19.744;2022-07-04T05:46:49;98194.41;;;27.62;58.16
50302;BME280;36550;50.472;19.744;2022-07-04T05:49:33;98189.48;;;27.58;58.42
50302;BME280;36550;50.472;19.744;2022-07-04T05:52:17;98194.54;;;27.59;57.70
50302;BME280;36550;50.472;19.744;2022-07-04T05:55:02;98192.63;;;27.60;57.43
50302;BME280;36550;50.472;19.744;2022-07-04T05:57:47;98197.34;;;27.63;57.27
50302;BME280;36550;50.472;19.744;2022-07-04T06:00:31;98206.64;;;27.65;57.36
50302;BME280;36550;50.472;19.744;2022-07-04T06:03:16;98208.80;;;27.66;57.08
50302;BME280;36550;50.472;19.744;2022-07-04T06:06:00;98204.75;;;27.66;57.05
50302;BME280;36550;50.472;19.744;2022-07-04T06:08:44;98211.93;;;27.68;57.05
50302;BME280;36550;50.472;19.744;2022-07-04T06:11:29;98212.13;;;27.69;56.61
50302;BME280;36550;50.472;19.744;2022-07-04T06:14:14;98208.80;;;27.66;56.21
50302;BME280;36550;50.472;19.744;2022-07-04T06:16:58;98209.23;;;27.62;56.46
50302;BME280;36550;50.472;19.744;2022-07-04T06:19:43;98213.18;;;27.58;56.38
50302;BME280;36550;50.472;19.744;2022-07-04T06:22:27;98213.75;;;27.58;56.70
50302;BME280;36550;50.472;19.744;2022-07-04T06:25:13;98194.77;;;27.60;56.19
50302;BME280;36550;50.472;19.744;2022-07-04T06:27:59;98191.95;;;27.63;55.73
50302;BME280;36550;50.472;19.744;2022-07-04T06:30:44;98190.59;;;27.63;55.70
50302;BME280;36550;50.472;19.744;2022-07-04T06:33:28;98187.23;;;27.60;54.78
50302;BME280;36550;50.472;19.744;2022-07-04T06:36:12;98191.98;;;27.57;54.89
50302;BME280;36550;50.472;19.744;2022-07-04T06:38:56;98194.10;;;27.51;54.63
50302;BME280;36550;50.472;19.744;2022-07-04T06:41:41;98188.50;;;27.50;54.73
50302;BME280;36550;50.472;19.744;2022-07-04T06:44:25;98190.42;;;27.50;54.61
50302;BME280;36550;50.472;19.744;2022-07-04T06:47:09;98182.00;;;27.45;54.23
50302;BME280;36550;50.472;19.744;2022-07-04T06:49:53;98184.02;;;27.42;53.97
50302;BME280;36550;50.472;19.744;2022-07-04T06:52:38;98179.34;;;27.39;53.81
50302;BME280;36550;50.472;19.744;2022-07-04T06:55:36;98186.98;;;27.37;53.51
50302;BME280;36550;50.472;19.744;2022-07-04T06:58:24;98186.75;;;27.36;53.11
50302;BME280;36550;50.472;19.744;2022-07-04T07:01:08;98190.22;;;27.36;52.64
50302;BME280;36550;50.472;19.744;2022-07-04T07:03:52;98194.63;;;27.35;51.99
50302;BME280;36550;50.472;19.744;2022-07-04T07:06:36;98199.91;;;27.31;51.34
50302;BME280;36550;50.472;19.744;2022-07-04T07:09:21;98194.72;;;27.20;50.47
50302;BME280;36550;50.472;19.744;2022-07-04T07:12:05;98199.45;;;27.11;49.71
50302;BME280;36550;50.472;19.744;2022-07-04T07:14:50;98199.45;;;27.11;49.05
50302;BME280;36550;50.472;19.744;2022-07-04T07:17:34;98201.47;;;27.14;48.80
50302;BME280;36550;50.472;19.744;2022-07-04T07:20:19;98204.41;;;27.15;49.50
50302;BME280;36550;50.472;19.744;2022-07-04T07:23:04;98196.42;;;27.18;48.33
50302;BME280;36550;50.472;19.744;2022-07-04T07:25:48;98190.13;;;27.20;48.01
50302;BME280;36550;50.472;19.744;2022-07-04T07:28:32;98183.06;;;27.28;48.16
50302;BME280;36550;50.472;19.744;2022-07-04T07:31:17;98186.20;;;27.30;47.54
50302;BME280;36550;50.472;19.744;2022-07-04T07:34:01;98192.80;;;27.33;47.50
50302;BME280;36550;50.472;19.744;2022-07-04T07:36:46;98196.08;;;27.32;47.67
50302;BME280;36550;50.472;19.744;2022-07-04T07:39:30;98196.75;;;27.35;46.06
50302;BME280;36550;50.472;19.744;2022-07-04T07:42:15;98198.30;;;27.42;46.73
50302;BME280;36550;50.472;19.744;2022-07-04T07:45:00;98195.81;;;27.43;45.50
50302;BME280;36550;50.472;19.744;2022-07-04T07:47:44;98205.15;;;27.46;45.17
50302;BME280;36550;50.472;19.744;2022-07-04T07:50:29;98198.95;;;27.52;46.02
50302;BME280;36550;50.472;19.744;2022-07-04T07:53:13;98194.87;;;27.58;45.95
50302;BME280;36550;50.472;19.744;2022-07-04T07:55:58;98187.46;;;27.61;45.76
50302;BME280;36550;50.472;19.744;2022-07-04T07:58:42;98188.20;;;27.68;46.22
50302;BME280;36550;50.472;19.744;2022-07-04T08:01:26;98190.26;;;27.64;44.25
50302;BME280;36550;50.472;19.744;2022-07-04T08:04:10;98191.00;;;27.71;44.99
50302;BME280;36550;50.472;19.744;2022-07-04T08:07:12;98191.63;;;27.80;44.84
50302;BME280;36550;50.472;19.744;2022-07-04T08:09:57;98189.13;;;27.88;44.30
50302;BME280;36550;50.472;19.744;2022-07-04T08:12:41;98191.83;;;27.88;45.04
50302;BME280;36550;50.472;19.744;2022-07-04T08:15:25;98194.19;;;27.89;44.92
50302;BME280;36550;50.472;19.744;2022-07-04T08:18:10;98194.55;;;27.94;45.20
50302;BME280;36550;50.472;19.744;2022-07-04T08:20:54;98200.38;;;27.96;44.85
50302;BME280;36550;50.472;19.744;2022-07-04T08:23:38;98193.84;;;27.97;44.53
50302;BME280;36550;50.472;19.744;2022-07-04T08:26:23;98190.02;;;27.98;40.41
50302;BME280;36550;50.472;19.744;2022-07-04T08:29:08;98199.86;;;28.06;41.31
50302;BME280;36550;50.472;19.744;2022-07-04T08:32:01;98203.94;;;28.22;40.75
50302;BME280;36550;50.472;19.744;2022-07-04T08:34:45;98200.78;;;28.42;42.31
50302;BME280;36550;50.472;19.744;2022-07-04T08:37:30;98208.34;;;28.58;41.15
50302;BME280;36550;50.472;19.744;2022-07-04T08:40:14;98201.85;;;28.69;42.48
50302;BME280;36550;50.472;19.744;2022-07-04T08:43:01;98196.39;;;28.75;42.18
50302;BME280;36550;50.472;19.744;2022-07-04T08:45:47;98200.59;;;28.73;41.56
50302;BME280;36550;50.472;19.744;2022-07-04T08:48:33;98198.38;;;28.69;41.98
50302;BME280;36550;50.472;19.744;2022-07-04T08:51:23;98191.22;;;28.60;41.77
50302;BME280;36550;50.472;19.744;2022-07-04T08:54:08;98187.23;;;28.48;41.24
50302;BME280;36550;50.472;19.744;2022-07-04T08:57:11;98202.43;;;28.31;41.87
50302;BME280;36550;50.472;19.744;2022-07-04T09:00:14;98198.88;;;28.20;41.92
50302;BME280;36550;50.472;19.744;2022-07-04T09:03:01;98198.27;;;28.11;42.21
50302;BME280;36550;50.472;19.744;2022-07-04T09:05:46;98206.84;;;28.07;41.90
50302;BME280;36550;50.472;19.744;2022-07-04T09:08:30;98210.22;;;28.04;42.37
50302;BME280;36550;50.472;19.744;2022-07-04T09:11:14;98197.77;;;27.99;41.82
50302;BME280;36550;50.472;19.744;2022-07-04T09:13:59;98204.63;;;27.97;42.00
50302;BME280;36550;50.472;19.744;2022-07-04T09:16:43;98207.99;;;28.00;42.11
50302;BME280;36550;50.472;19.744;2022-07-04T09:19:28;98206.60;;;28.06;42.12
50302;BME280;36550;50.472;19.744;2022-07-04T09:22:13;98205.23;;;28.12;41.38
50302;BME280;36550;50.472;19.744;2022-07-04T09:24:58;98203.11;;;28.12;40.16
50302;BME280;36550;50.472;19.744;2022-07-04T09:27:45;98198.97;;;28.08;41.23
50302;BME280;36550;50.472;19.744;2022-07-04T09:30:31;98202.22;;;28.08;41.25
50302;BME280;36550;50.472;19.744;2022-07-04T09:33:16;98193.83;;;28.03;40.94
50302;BME280;36550;50.472;19.744;2022-07-04T09:36:17;98198.44;;;28.02;40.84
50302;BME280;36550;50.472;19.744;2022-07-04T09:39:16;98195.36;;;28.10;40.23
50302;BME280;36550;50.472;19.744;2022-07-04T09:42:03;98191.50;;;28.17;40.83
50302;BME280;36550;50.472;19.744;2022-07-04T09:44:47;98191.89;;;28.26;41.21
50302;BME280;36550;50.472;19.744;2022-07-04T09:47:35;98192.91;;;28.43;41.00
50302;BME280;36550;50.472;19.744;2022-07-04T09:50:22;98193.41;;;28.55;40.22
50302;BME280;36550;50.472;19.744;2022-07-04T09:53:07;98186.05;;;28.62;40.13
50302;BME280;36550;50.472;19.744;2022-07-04T09:55:51;98188.70;;;28.68;40.34
50302;BME280;36550;50.472;19.744;2022-07-04T09:58:35;98187.86;;;28.73;40.66
50302;BME280;36550;50.472;19.744;2022-07-04T10:01:20;98181.01;;;28.86;40.77
50302;BME280;36550;50.472;19.744;2022-07-04T10:04:04;98178.83;;;29.01;40.71
50302;BME280;36550;50.472;19.744;2022-07-04T10:06:48;98174.92;;;29.14;40.13
50302;BME280;36550;50.472;19.744;2022-07-04T10:09:32;98172.37;;;29.22;39.77
50302;BME280;36550;50.472;19.744;2022-07-04T10:12:27;98170.17;;;29.27;39.39
50302;BME280;36550;50.472;19.744;2022-07-04T10:15:12;98165.27;;;29.33;39.25
50302;BME280;36550;50.472;19.744;2022-07-04T10:17:57;98159.22;;;29.49;38.48
50302;BME280;36550;50.472;19.744;2022-07-04T10:20:41;98156.91;;;29.71;37.49
50302;BME280;36550;50.472;19.744;2022-07-04T10:23:26;98156.05;;;29.96;37.55
50302;BME280;36550;50.472;19.744;2022-07-04T10:26:12;98152.90;;;30.27;37.66
50302;BME280;36550;50.472;19.744;2022-07-04T10:28:58;98145.31;;;30.59;37.70
50302;BME280;36550;50.472;19.744;2022-07-04T10:31:42;98143.75;;;30.85;37.24
50302;BME280;36550;50.472;19.744;2022-07-04T10:34:27;98149.20;;;31.15;36.89
50302;BME280;36550;50.472;19.744;2022-07-04T10:37:11;98148.97;;;31.44;36.73
50302;BME280;36550;50.472;19.744;2022-07-04T10:39:56;98153.72;;;31.68;35.51
50302;BME280;36550;50.472;19.744;2022-07-04T10:42:41;98149.87;;;31.90;34.67
50302;BME280;36550;50.472;19.744;2022-07-04T10:45:32;98153.47;;;32.01;34.51
50302;BME280;36550;50.472;19.744;2022-07-04T10:48:24;98147.58;;;32.12;34.62
50302;BME280;36550;50.472;19.744;2022-07-04T10:51:09;98152.28;;;32.15;34.03
50302;BME280;36550;50.472;19.744;2022-07-04T10:54:05;98156.31;;;32.12;34.34
50302;BME280;36550;50.472;19.744;2022-07-04T10:56:54;98156.72;;;32.14;34.35
50302;BME280;36550;50.472;19.744;2022-07-04T10:59:42;98166.28;;;32.21;33.72
50302;BME280;36550;50.472;19.744;2022-07-04T11:02:29;98169.19;;;32.18;33.13
50302;BME280;36550;50.472;19.744;2022-07-04T11:05:15;98168.02;;;32.19;33.99
50302;BME280;36550;50.472;19.744;2022-07-04T11:08:01;98161.38;;;32.13;33.60
50302;BME280;36550;50.472;19.744;2022-07-04T11:10:47;98168.72;;;32.13;34.33
50302;BME280;36550;50.472;19.744;2022-07-04T11:13:33;98165.61;;;32.11;33.38
50302;BME280;36550;50.472;19.744;2022-07-04T11:16:17;98160.22;;;31.97;33.24
50302;BME280;36550;50.472;19.744;2022-07-04T11:19:02;98164.52;;;31.81;33.88
50302;BME280;36550;50.472;19.744;2022-07-04T11:21:46;98169.64;;;31.70;33.67
50302;BME280;36550;50.472;19.744;2022-07-04T11:24:32;98170.83;;;31.55;33.74
50302;BME280;36550;50.472;19.744;2022-07-04T11:27:17;98169.14;;;31.30;34.37
50302;BME280;36550;50.472;19.744;2022-07-04T11:30:01;98169.03;;;31.06;34.32
50302;BME280;36550;50.472;19.744;2022-07-04T11:32:45;98159.22;;;30.71;35.07
50302;BME280;36550;50.472;19.744;2022-07-04T11:35:29;98161.48;;;30.42;35.49
50302;BME280;36550;50.472;19.744;2022-07-04T11:38:13;98159.77;;;30.21;36.35
50302;BME280;36550;50.472;19.744;2022-07-04T11:40:58;98158.59;;;30.08;36.63
50302;BME280;36550;50.472;19.744;2022-07-04T11:44:06;98157.05;;;29.98;36.96
50302;BME280;36550;50.472;19.744;2022-07-04T11:47:15;98154.88;;;29.74;37.46
50302;BME280;36550;50.472;19.744;2022-07-04T11:50:08;98150.23;;;29.65;38.06
50302;BME280;36550;50.472;19.744;2022-07-04T11:52:55;98154.65;;;29.73;38.36
50302;BME280;36550;50.472;19.744;2022-07-04T11:55:55;98148.82;;;29.81;37.85
50302;BME280;36550;50.472;19.744;2022-07-04T11:58:41;98133.78;;;29.83;38.10
50302;BME280;36550;50.472;19.744;2022-07-04T12:01:27;98137.45;;;29.94;37.97
50302;BME280;36550;50.472;19.744;2022-07-04T12:04:18;98129.11;;;30.03;38.53
50302;BME280;36550;50.472;19.744;2022-07-04T12:07:08;98125.52;;;30.19;38.16
50302;BME280;36550;50.472;19.744;2022-07-04T12:09:56;98116.98;;;30.30;38.26
50302;BME280;36550;50.472;19.744;2022-07-04T12:12:53;98121.19;;;30.50;38.70
50302;BME280;36550;50.472;19.744;2022-07-04T12:15:43;98121.23;;;30.67;38.58
50302;BME280;36550;50.472;19.744;2022-07-04T12:18:29;98116.31;;;30.90;37.83
50302;BME280;36550;50.472;19.744;2022-07-04T12:21:16;98114.62;;;31.05;36.87
50302;BME280;36550;50.472;19.744;2022-07-04T12:24:03;98107.31;;;31.09;37.07
50302;BME280;36550;50.472;19.744;2022-07-04T12:26:48;98112.88;;;31.06;36.80
50302;BME280;36550;50.472;19.744;2022-07-04T12:29:32;98113.41;;;31.02;37.29
50302;BME280;36550;50.472;19.744;2022-07-04T12:32:17;98113.68;;;30.94;37.93
50302;BME280;36550;50.472;19.744;2022-07-04T12:35:01;98112.23;;;30.86;38.44
50302;BME280;36550;50.472;19.744;2022-07-04T12:38:01;98114.20;;;30.76;37.72
50302;BME280;36550;50.472;19.744;2022-07-04T12:43:48;98104.31;;;30.74;37.91
50302;BME280;36550;50.472;19.744;2022-07-04T12:46:34;98104.72;;;30.76;37.18
50302;BME280;36550;50.472;19.744;2022-07-04T12:49:20;98102.25;;;30.81;36.80
50302;BME280;36550;50.472;19.744;2022-07-04T12:52:12;98103.15;;;30.75;36.64
50302;BME280;36550;50.472;19.744;2022-07-04T12:55:06;98106.15;;;30.66;36.37
50302;BME280;36550;50.472;19.744;2022-07-04T12:57:53;98114.72;;;30.59;36.26
50302;BME280;36550;50.472;19.744;2022-07-04T13:00:38;98104.47;;;30.45;36.16
50302;BME280;36550;50.472;19.744;2022-07-04T13:03:23;98109.01;;;30.37;36.00
50302;BME280;36550;50.472;19.744;2022-07-04T13:06:07;98106.80;;;30.33;36.32
50302;BME280;36550;50.472;19.744;2022-07-04T13:08:52;98113.48;;;30.29;35.49
50302;BME280;36550;50.472;19.744;2022-07-04T13:11:37;98117.54;;;30.29;35.38
50302;BME280;36550;50.472;19.744;2022-07-04T13:14:40;98108.00;;;30.26;35.31
50302;BME280;36550;50.472;19.744;2022-07-04T13:17:25;98106.05;;;30.23;35.05
50302;BME280;36550;50.472;19.744;2022-07-04T13:20:10;98106.81;;;30.23;35.13
50302;BME280;36550;50.472;19.744;2022-07-04T13:22:56;98105.22;;;30.32;34.83
50302;BME280;36550;50.472;19.744;2022-07-04T13:25:40;98108.78;;;30.36;34.59
50302;BME280;36550;50.472;19.744;2022-07-04T13:28:24;98104.61;;;30.42;34.87
50302;BME280;36550;50.472;19.744;2022-07-04T13:31:08;98095.24;;;30.49;34.97
50302;BME280;36550;50.472;19.744;2022-07-04T13:33:55;98093.99;;;30.57;35.46
50302;BME280;36550;50.472;19.744;2022-07-04T13:36:40;98084.92;;;30.59;34.86
50302;BME280;36550;50.472;19.744;2022-07-04T13:39:24;98080.31;;;30.59;35.12
50302;BME280;36550;50.472;19.744;2022-07-04T13:42:09;98084.84;;;30.65;35.76
50302;BME280;36550;50.472;19.744;2022-07-04T13:44:53;98094.42;;;30.72;35.59
50302;BME280;36550;50.472;19.744;2022-07-04T13:47:37;98082.59;;;30.70;34.32
50302;BME280;36550;50.472;19.744;2022-07-04T13:50:21;98081.72;;;30.63;34.83
50302;BME280;36550;50.472;19.744;2022-07-04T13:53:07;98087.48;;;30.48;34.71
50302;BME280;36550;50.472;19.744;2022-07-04T13:55:52;98088.12;;;30.38;34.68
50302;BME280;36550;50.472;19.744;2022-07-04T13:58:36;98090.69;;;30.30;35.08
50302;BME280;36550;50.472;19.744;2022-07-04T14:01:21;98086.88;;;30.22;35.12
50302;BME280;36550;50.472;19.744;2022-07-04T14:04:05;98087.99;;;30.07;35.11
50302;BME280;36550;50.472;19.744;2022-07-04T14:06:50;98085.17;;;30.00;35.77
50302;BME280;36550;50.472;19.744;2022-07-04T14:09:34;98079.50;;;29.96;35.49
50302;BME280;36550;50.472;19.744;2022-07-04T14:12:20;98084.21;;;29.89;35.18
50302;BME280;36550;50.472;19.744;2022-07-04T14:15:05;98078.96;;;29.86;35.35
50302;BME280;36550;50.472;19.744;2022-07-04T14:17:50;98083.28;;;29.91;35.35
50302;BME280;36550;50.472;19.744;2022-07-04T14:20:34;98083.39;;;29.98;34.93
50302;BME280;36550;50.472;19.744;2022-07-04T14:23:18;98079.33;;;30.08;34.95
50302;BME280;36550;50.472;19.744;2022-07-04T14:26:05;98081.70;;;30.13;34.60
50302;BME280;36550;50.472;19.744;2022-07-04T14:28:49;98083.17;;;30.20;34.51
50302;BME280;36550;50.472;19.744;2022-07-04T14:31:33;98084.16;;;30.22;34.24